sensor_id;sensor_type;location;lat;lon;timestamp;temperature;humidity
24458;DHT22;12629;50.860;5.714;2022-12-18T00:01:17;-7.20;99.90
24458;DHT22;12629;50.860;5.714;2022-12-18T00:03:45;-7.20;99.90
24458;DHT22;12629;50.860;5.714;2022-12-18T00:06:12;-7.20;99.90
24458;DHT22;12629;50.860;5.714;2022-12-18T00:08:41;-7.20;99.90
24458;DHT22;12629;50.860;5.714;2022-12-18T00:11:10;-7.20;99.90
24458;DHT22;12629;50.860;5.714;2022-12-18T00:13:38;-7.20;99.90
24458;DHT22;12629;50.860;5.714;2022-12-18T00:16:09;-7.40;99.90
24458;DHT22;12629;50.860;5.714;2022-12-18T00:18:37;-7.50;99.90
24458;DHT22;12629;50.860;5.714;2022-12-18T00:21:06;-7.50;99.90
24458;DHT22;12629;50.860;5.714;2022-12-18T00:23:34;-7.60;99.90
24458;DHT22;12629;50.860;5.714;2022-12-18T00:26:05;-7.60;99.90
24458;DHT22;12629;50.860;5.714;2022-12-18T00:28:32;-7.70;99.90
24458;DHT22;12629;50.860;5.714;2022-12-18T00:31:01;-7.70;99.90
24458;DHT22;12629;50.860;5.714;2022-12-18T00:33:28;-7.60;99.90
24458;DHT22;12629;50.860;5.714;2022-12-18T00:36:00;-7.60;99.90
24458;DHT22;12629;50.860;5.714;2022-12-18T00:38:27;-7.60;99.90
24458;DHT22;12629;50.860;5.714;2022-12-18T00:40:54;-7.60;99.90
24458;DHT22;12629;50.860;5.714;2022-12-18T00:43:23;-7.80;99.90
24458;DHT22;12629;50.860;5.714;2022-12-18T00:45:49;-7.80;99.90
24458;DHT22;12629;50.860;5.714;2022-12-18T00:48:17;-7.90;99.90
24458;DHT22;12629;50.860;5.714;2022-12-18T00:50:44;-7.90;99.90
24458;DHT22;12629;50.860;5.714;2022-12-18T00:53:11;-8.00;99.90
24458;DHT22;12629;50.860;5.714;2022-12-18T00:55:39;-8.10;99.90
24458;DHT22;12629;50.860;5.714;2022-12-18T00:58:07;-8.00;99.90
24458;DHT22;12629;50.860;5.714;2022-12-18T01:00:36;-8.00;99.90
24458;DHT22;12629;50.860;5.714;2022-12-18T01:03:04;-8.00;99.90
24458;DHT22;12629;50.860;5.714;2022-12-18T01:05:32;-7.90;99.90
24458;DHT22;12629;50.860;5.714;2022-12-18T01:07:59;-7.90;99.90
24458;DHT22;12629;50.860;5.714;2022-12-18T01:10:27;-7.90;99.90
24458;DHT22;12629;50.860;5.714;2022-12-18T01:12:54;-8.00;99.90
24458;DHT22;12629;50.860;5.714;2022-12-18T01:15:22;-8.00;99.90
24458;DHT22;12629;50.860;5.714;2022-12-18T01:17:51;-8.20;99.90
24458;DHT22;12629;50.860;5.714;2022-12-18T01:20:19;-8.20;99.90
24458;DHT22;12629;50.860;5.714;2022-12-18T01:22:46;-8.20;99.90
24458;DHT22;12629;50.860;5.714;2022-12-18T01:25:13;-8.20;99.90
24458;DHT22;12629;50.860;5.714;2022-12-18T01:27:40;-8.10;99.90
24458;DHT22;12629;50.860;5.714;2022-12-18T01:30:08;-8.10;99.90
24458;DHT22;12629;50.860;5.714;2022-12-18T01:32:36;-8.20;99.90
24458;DHT22;12629;50.860;5.714;2022-12-18T01:35:05;-8.10;99.90
24458;DHT22;12629;50.860;5.714;2022-12-18T01:37:33;-8.10;99.90
24458;DHT22;12629;50.860;5.714;2022-12-18T01:40:00;-8.10;99.90
24458;DHT22;12629;50.860;5.714;2022-12-18T01:42:27;-8.10;99.90
24458;DHT22;12629;50.860;5.714;2022-12-18T01:45:00;-8.20;99.90
24458;DHT22;12629;50.860;5.714;2022-12-18T01:47:35;-8.20;99.90
24458;DHT22;12629;50.860;5.714;2022-12-18T01:50:09;-8.20;99.90
24458;DHT22;12629;50.860;5.714;2022-12-18T01:52:37;-8.30;99.90
24458;DHT22;12629;50.860;5.714;2022-12-18T01:55:09;-8.30;99.90
24458;DHT22;12629;50.860;5.714;2022-12-18T01:57:38;-8.40;99.90
24458;DHT22;12629;50.860;5.714;2022-12-18T02:00:08;-8.40;99.90
24458;DHT22;12629;50.860;5.714;2022-12-18T02:02:36;-8.30;99.90
24458;DHT22;12629;50.860;5.714;2022-12-18T02:05:06;-8.40;99.90
24458;DHT22;12629;50.860;5.714;2022-12-18T02:07:40;-8.30;99.90
24458;DHT22;12629;50.860;5.714;2022-12-18T02:10:14;-8.20;99.90
24458;DHT22;12629;50.860;5.714;2022-12-18T02:12:48;-8.20;99.90
24458;DHT22;12629;50.860;5.714;2022-12-18T02:15:19;-8.20;99.90
24458;DHT22;12629;50.860;5.714;2022-12-18T02:17:55;-8.20;99.90
24458;DHT22;12629;50.860;5.714;2022-12-18T02:20:32;-8.10;99.90
24458;DHT22;12629;50.860;5.714;2022-12-18T02:23:06;-8.10;99.90
24458;DHT22;12629;50.860;5.714;2022-12-18T02:25:51;-8.00;99.90
24458;DHT22;12629;50.860;5.714;2022-12-18T02:28:22;-8.00;99.90
24458;DHT22;12629;50.860;5.714;2022-12-18T02:30:53;-7.90;99.90
24458;DHT22;12629;50.860;5.714;2022-12-18T02:33:24;-7.80;99.90
24458;DHT22;12629;50.860;5.714;2022-12-18T02:35:54;-7.80;99.90
24458;DHT22;12629;50.860;5.714;2022-12-18T02:38:23;-7.80;99.90
24458;DHT22;12629;50.860;5.714;2022-12-18T02:40:53;-7.90;99.90
24458;DHT22;12629;50.860;5.714;2022-12-18T02:43:21;-7.80;99.90
24458;DHT22;12629;50.860;5.714;2022-12-18T02:45:57;-7.80;99.90
24458;DHT22;12629;50.860;5.714;2022-12-18T02:48:28;-7.80;99.90
24458;DHT22;12629;50.860;5.714;2022-12-18T02:51:02;-7.80;99.90
24458;DHT22;12629;50.860;5.714;2022-12-18T02:53:36;-7.80;99.90
24458;DHT22;12629;50.860;5.714;2022-12-18T02:56:11;-7.80;99.90
24458;DHT22;12629;50.860;5.714;2022-12-18T02:58:46;-7.90;99.90
24458;DHT22;12629;50.860;5.714;2022-12-18T03:01:19;-7.90;99.90
24458;DHT22;12629;50.860;5.714;2022-12-18T03:03:53;-7.90;99.90
24458;DHT22;12629;50.860;5.714;2022-12-18T03:06:26;-7.90;99.90
24458;DHT22;12629;50.860;5.714;2022-12-18T03:08:58;-7.90;99.90
24458;DHT22;12629;50.860;5.714;2022-12-18T03:11:29;-8.00;99.90
24458;DHT22;12629;50.860;5.714;2022-12-18T03:14:16;-8.00;99.90
24458;DHT22;12629;50.860;5.714;2022-12-18T03:16:46;-8.00;99.90
24458;DHT22;12629;50.860;5.714;2022-12-18T03:19:17;-8.10;99.90
24458;DHT22;12629;50.860;5.714;2022-12-18T03:21:48;-8.00;99.90
24458;DHT22;12629;50.860;5.714;2022-12-18T03:24:17;-8.00;99.90
24458;DHT22;12629;50.860;5.714;2022-12-18T03:26:49;-8.10;99.90
24458;DHT22;12629;50.860;5.714;2022-12-18T03:29:21;-8.00;99.90
24458;DHT22;12629;50.860;5.714;2022-12-18T03:31:53;-8.00;99.90
24458;DHT22;12629;50.860;5.714;2022-12-18T03:34:21;-8.00;99.90
24458;DHT22;12629;50.860;5.714;2022-12-18T03:36:50;-7.90;99.90
24458;DHT22;12629;50.860;5.714;2022-12-18T03:39:18;-7.90;99.90
24458;DHT22;12629;50.860;5.714;2022-12-18T03:41:52;-7.90;99.90
24458;DHT22;12629;50.860;5.714;2022-12-18T03:44:29;-7.90;99.90
24458;DHT22;12629;50.860;5.714;2022-12-18T03:47:05;-7.90;99.90
24458;DHT22;12629;50.860;5.714;2022-12-18T03:49:37;-7.90;99.90
24458;DHT22;12629;50.860;5.714;2022-12-18T03:52:09;-7.90;99.90
24458;DHT22;12629;50.860;5.714;2022-12-18T03:54:39;-8.00;99.90
24458;DHT22;12629;50.860;5.714;2022-12-18T03:57:13;-8.00;99.90
24458;DHT22;12629;50.860;5.714;2022-12-18T03:59:43;-8.00;99.90
24458;DHT22;12629;50.860;5.714;2022-12-18T04:02:11;-8.00;99.90
24458;DHT22;12629;50.860;5.714;2022-12-18T04:04:39;-8.00;99.90
24458;DHT22;12629;50.860;5.714;2022-12-18T04:07:08;-8.00;99.90
24458;DHT22;12629;50.860;5.714;2022-12-18T04:09:36;-8.00;99.90
24458;DHT22;12629;50.860;5.714;2022-12-18T04:12:05;-8.00;99.90
24458;DHT22;12629;50.860;5.714;2022-12-18T04:14:34;-8.10;99.90
24458;DHT22;12629;50.860;5.714;2022-12-18T04:17:01;-8.10;99.90
24458;DHT22;12629;50.860;5.714;2022-12-18T04:19:28;-8.10;99.90
24458;DHT22;12629;50.860;5.714;2022-12-18T04:21:55;-8.00;99.90
24458;DHT22;12629;50.860;5.714;2022-12-18T04:24:23;-8.00;99.90
24458;DHT22;12629;50.860;5.714;2022-12-18T04:26:50;-8.00;99.90
24458;DHT22;12629;50.860;5.714;2022-12-18T04:29:17;-8.00;99.90
24458;DHT22;12629;50.860;5.714;2022-12-18T04:31:46;-8.00;99.90
24458;DHT22;12629;50.860;5.714;2022-12-18T04:34:13;-8.00;99.90
24458;DHT22;12629;50.860;5.714;2022-12-18T04:36:40;-8.00;99.90
24458;DHT22;12629;50.860;5.714;2022-12-18T04:39:07;-8.00;99.90
24458;DHT22;12629;50.860;5.714;2022-12-18T04:41:35;-8.10;99.90
24458;DHT22;12629;50.860;5.714;2022-12-18T04:44:02;-8.10;99.90
24458;DHT22;12629;50.860;5.714;2022-12-18T04:46:29;-8.10;99.90
24458;DHT22;12629;50.860;5.714;2022-12-18T04:48:58;-8.10;99.90
24458;DHT22;12629;50.860;5.714;2022-12-18T04:51:25;-8.10;99.90
24458;DHT22;12629;50.860;5.714;2022-12-18T04:53:53;-8.10;99.90
24458;DHT22;12629;50.860;5.714;2022-12-18T04:56:20;-8.20;99.90
24458;DHT22;12629;50.860;5.714;2022-12-18T04:58:47;-8.20;99.90
24458;DHT22;12629;50.860;5.714;2022-12-18T05:01:16;-8.20;99.90
24458;DHT22;12629;50.860;5.714;2022-12-18T05:03:44;-8.30;99.90
24458;DHT22;12629;50.860;5.714;2022-12-18T05:06:13;-8.30;99.90
24458;DHT22;12629;50.860;5.714;2022-12-18T05:08:40;-8.30;99.90
24458;DHT22;12629;50.860;5.714;2022-12-18T05:11:09;-8.40;99.90
24458;DHT22;12629;50.860;5.714;2022-12-18T05:13:37;-8.30;99.90
24458;DHT22;12629;50.860;5.714;2022-12-18T05:16:05;-8.40;99.90
24458;DHT22;12629;50.860;5.714;2022-12-18T05:18:33;-8.40;99.90
24458;DHT22;12629;50.860;5.714;2022-12-18T05:21:00;-8.30;99.90
24458;DHT22;12629;50.860;5.714;2022-12-18T05:23:29;-8.40;99.90
24458;DHT22;12629;50.860;5.714;2022-12-18T05:25:57;-8.30;99.90
24458;DHT22;12629;50.860;5.714;2022-12-18T05:28:26;-8.30;99.90
24458;DHT22;12629;50.860;5.714;2022-12-18T05:30:56;-8.30;99.90
24458;DHT22;12629;50.860;5.714;2022-12-18T05:33:25;-8.30;99.90
24458;DHT22;12629;50.860;5.714;2022-12-18T05:35:52;-8.30;99.90
24458;DHT22;12629;50.860;5.714;2022-12-18T05:38:21;-8.20;99.90
24458;DHT22;12629;50.860;5.714;2022-12-18T05:40:50;-8.10;99.90
24458;DHT22;12629;50.860;5.714;2022-12-18T05:43:19;-8.00;99.90
24458;DHT22;12629;50.860;5.714;2022-12-18T05:45:47;-8.00;99.90
24458;DHT22;12629;50.860;5.714;2022-12-18T05:48:15;-8.00;99.90
24458;DHT22;12629;50.860;5.714;2022-12-18T05:50:44;-8.00;99.90
24458;DHT22;12629;50.860;5.714;2022-12-18T05:53:12;-8.00;99.90
24458;DHT22;12629;50.860;5.714;2022-12-18T05:55:40;-8.10;99.90
24458;DHT22;12629;50.860;5.714;2022-12-18T05:58:11;-8.10;99.90
24458;DHT22;12629;50.860;5.714;2022-12-18T06:00:41;-8.10;99.90
24458;DHT22;12629;50.860;5.714;2022-12-18T06:03:10;-8.20;99.90
24458;DHT22;12629;50.860;5.714;2022-12-18T06:05:39;-8.20;99.90
24458;DHT22;12629;50.860;5.714;2022-12-18T06:08:07;-8.30;99.90
24458;DHT22;12629;50.860;5.714;2022-12-18T06:10:34;-8.30;99.90
24458;DHT22;12629;50.860;5.714;2022-12-18T06:13:01;-8.30;99.90
24458;DHT22;12629;50.860;5.714;2022-12-18T06:15:30;-8.30;99.90
24458;DHT22;12629;50.860;5.714;2022-12-18T06:17:57;-8.30;99.90
24458;DHT22;12629;50.860;5.714;2022-12-18T06:20:24;-8.40;99.90
24458;DHT22;12629;50.860;5.714;2022-12-18T06:22:52;-8.40;99.90
24458;DHT22;12629;50.860;5.714;2022-12-18T06:25:19;-8.50;99.90
24458;DHT22;12629;50.860;5.714;2022-12-18T06:27:47;-8.50;99.90
24458;DHT22;12629;50.860;5.714;2022-12-18T06:30:14;-8.50;99.90
24458;DHT22;12629;50.860;5.714;2022-12-18T06:32:43;-8.50;99.90
24458;DHT22;12629;50.860;5.714;2022-12-18T06:35:10;-8.60;99.90
24458;DHT22;12629;50.860;5.714;2022-12-18T06:37:37;-8.70;99.90
24458;DHT22;12629;50.860;5.714;2022-12-18T06:40:06;-8.80;99.90
24458;DHT22;12629;50.860;5.714;2022-12-18T06:42:33;-8.90;99.90
24458;DHT22;12629;50.860;5.714;2022-12-18T06:45:00;-8.90;99.90
24458;DHT22;12629;50.860;5.714;2022-12-18T06:47:28;-8.80;99.90
24458;DHT22;12629;50.860;5.714;2022-12-18T06:49:56;-8.80;99.90
24458;DHT22;12629;50.860;5.714;2022-12-18T06:52:24;-8.80;99.90
24458;DHT22;12629;50.860;5.714;2022-12-18T06:54:51;-8.80;99.90
24458;DHT22;12629;50.860;5.714;2022-12-18T06:57:18;-8.80;99.90
24458;DHT22;12629;50.860;5.714;2022-12-18T06:59:45;-8.90;99.90
24458;DHT22;12629;50.860;5.714;2022-12-18T07:02:12;-8.90;99.90
24458;DHT22;12629;50.860;5.714;2022-12-18T07:04:40;-8.90;99.90
24458;DHT22;12629;50.860;5.714;2022-12-18T07:07:08;-8.80;99.90
24458;DHT22;12629;50.860;5.714;2022-12-18T07:09:36;-8.70;99.90
24458;DHT22;12629;50.860;5.714;2022-12-18T07:12:03;-8.70;99.90
24458;DHT22;12629;50.860;5.714;2022-12-18T07:14:30;-8.60;99.90
24458;DHT22;12629;50.860;5.714;2022-12-18T07:16:57;-8.60;99.90
24458;DHT22;12629;50.860;5.714;2022-12-18T07:19:25;-8.60;99.90
24458;DHT22;12629;50.860;5.714;2022-12-18T07:21:52;-8.60;99.90
24458;DHT22;12629;50.860;5.714;2022-12-18T07:24:21;-8.60;99.90
24458;DHT22;12629;50.860;5.714;2022-12-18T07:26:48;-8.60;99.90
24458;DHT22;12629;50.860;5.714;2022-12-18T07:29:15;-8.60;99.90
24458;DHT22;12629;50.860;5.714;2022-12-18T07:31:42;-8.70;99.90
24458;DHT22;12629;50.860;5.714;2022-12-18T07:34:10;-8.60;99.90
24458;DHT22;12629;50.860;5.714;2022-12-18T07:36:38;-8.70;99.90
24458;DHT22;12629;50.860;5.714;2022-12-18T07:39:05;-8.70;99.90
24458;DHT22;12629;50.860;5.714;2022-12-18T07:41:34;-8.70;99.90
24458;DHT22;12629;50.860;5.714;2022-12-18T07:44:01;-8.60;99.90
24458;DHT22;12629;50.860;5.714;2022-12-18T07:46:28;-8.50;99.90
24458;DHT22;12629;50.860;5.714;2022-12-18T07:48:55;-8.30;99.90
24458;DHT22;12629;50.860;5.714;2022-12-18T07:51:23;-8.20;99.90
24458;DHT22;12629;50.860;5.714;2022-12-18T07:53:50;-8.10;99.90
24458;DHT22;12629;50.860;5.714;2022-12-18T07:56:17;-8.10;99.90
24458;DHT22;12629;50.860;5.714;2022-12-18T07:58:46;-8.00;99.90
24458;DHT22;12629;50.860;5.714;2022-12-18T08:01:16;-7.90;99.90
24458;DHT22;12629;50.860;5.714;2022-12-18T08:03:43;-7.90;99.90
24458;DHT22;12629;50.860;5.714;2022-12-18T08:06:10;-7.70;99.90
24458;DHT22;12629;50.860;5.714;2022-12-18T08:08:37;-7.50;99.90
24458;DHT22;12629;50.860;5.714;2022-12-18T08:11:06;-7.40;99.90
24458;DHT22;12629;50.860;5.714;2022-12-18T08:13:33;-7.20;99.90
24458;DHT22;12629;50.860;5.714;2022-12-18T08:16:03;-7.10;99.90
24458;DHT22;12629;50.860;5.714;2022-12-18T08:18:32;-6.90;99.90
24458;DHT22;12629;50.860;5.714;2022-12-18T08:21:07;-6.70;99.90
24458;DHT22;12629;50.860;5.714;2022-12-18T08:23:35;-6.60;99.90
24458;DHT22;12629;50.860;5.714;2022-12-18T08:26:02;-6.50;99.90
24458;DHT22;12629;50.860;5.714;2022-12-18T08:28:29;-6.20;99.90
24458;DHT22;12629;50.860;5.714;2022-12-18T08:30:57;-6.00;99.90
24458;DHT22;12629;50.860;5.714;2022-12-18T08:33:25;-5.70;99.90
24458;DHT22;12629;50.860;5.714;2022-12-18T08:35:53;-5.40;99.90
24458;DHT22;12629;50.860;5.714;2022-12-18T08:38:20;-5.20;99.90
24458;DHT22;12629;50.860;5.714;2022-12-18T08:40:48;-5.00;99.90
24458;DHT22;12629;50.860;5.714;2022-12-18T08:43:15;-5.00;99.90
24458;DHT22;12629;50.860;5.714;2022-12-18T08:46:00;-4.80;99.90
24458;DHT22;12629;50.860;5.714;2022-12-18T08:48:29;-4.70;99.90
24458;DHT22;12629;50.860;5.714;2022-12-18T08:50:57;-4.40;99.90
24458;DHT22;12629;50.860;5.714;2022-12-18T08:53:25;-4.30;99.90
24458;DHT22;12629;50.860;5.714;2022-12-18T08:55:53;-4.00;99.90
24458;DHT22;12629;50.860;5.714;2022-12-18T08:58:20;-3.90;99.90
24458;DHT22;12629;50.860;5.714;2022-12-18T09:00:47;-3.70;99.90
24458;DHT22;12629;50.860;5.714;2022-12-18T09:03:16;-3.60;99.90
24458;DHT22;12629;50.860;5.714;2022-12-18T09:05:45;-3.20;99.90
24458;DHT22;12629;50.860;5.714;2022-12-18T09:08:13;-2.80;99.90
24458;DHT22;12629;50.860;5.714;2022-12-18T09:10:42;-2.40;99.90
24458;DHT22;12629;50.860;5.714;2022-12-18T09:13:11;-2.60;99.90
24458;DHT22;12629;50.860;5.714;2022-12-18T09:15:41;-2.90;99.90
24458;DHT22;12629;50.860;5.714;2022-12-18T09:18:09;-3.00;99.90
24458;DHT22;12629;50.860;5.714;2022-12-18T09:20:36;-3.10;99.90
24458;DHT22;12629;50.860;5.714;2022-12-18T09:23:05;-3.30;99.90
24458;DHT22;12629;50.860;5.714;2022-12-18T09:25:33;-3.40;99.90
24458;DHT22;12629;50.860;5.714;2022-12-18T09:28:02;-3.60;99.90
24458;DHT22;12629;50.860;5.714;2022-12-18T09:30:29;-3.50;99.90
24458;DHT22;12629;50.860;5.714;2022-12-18T09:32:59;-3.60;99.90
24458;DHT22;12629;50.860;5.714;2022-12-18T09:35:26;-3.80;99.90
24458;DHT22;12629;50.860;5.714;2022-12-18T09:37:53;-3.50;99.90
24458;DHT22;12629;50.860;5.714;2022-12-18T09:40:25;-3.30;99.90
24458;DHT22;12629;50.860;5.714;2022-12-18T09:42:57;-3.00;99.90
24458;DHT22;12629;50.860;5.714;2022-12-18T09:45:26;-2.90;99.90
24458;DHT22;12629;50.860;5.714;2022-12-18T09:47:55;-2.70;99.90
24458;DHT22;12629;50.860;5.714;2022-12-18T09:50:27;-2.60;99.90
24458;DHT22;12629;50.860;5.714;2022-12-18T09:52:59;-2.60;99.90
24458;DHT22;12629;50.860;5.714;2022-12-18T09:55:32;-2.60;99.90
24458;DHT22;12629;50.860;5.714;2022-12-18T09:58:04;-2.40;99.90
24458;DHT22;12629;50.860;5.714;2022-12-18T10:00:33;-2.20;99.90
24458;DHT22;12629;50.860;5.714;2022-12-18T10:03:03;-1.90;99.90
24458;DHT22;12629;50.860;5.714;2022-12-18T10:05:39;-1.90;99.90
24458;DHT22;12629;50.860;5.714;2022-12-18T10:08:13;-1.90;99.90
24458;DHT22;12629;50.860;5.714;2022-12-18T10:10:48;-2.00;99.90
24458;DHT22;12629;50.860;5.714;2022-12-18T10:13:23;-2.10;99.90
24458;DHT22;12629;50.860;5.714;2022-12-18T10:16:00;-2.00;99.90
24458;DHT22;12629;50.860;5.714;2022-12-18T10:18:42;-2.00;99.90
24458;DHT22;12629;50.860;5.714;2022-12-18T10:21:18;-2.00;99.90
24458;DHT22;12629;50.860;5.714;2022-12-18T10:23:55;-2.00;99.90
24458;DHT22;12629;50.860;5.714;2022-12-18T10:26:27;-2.20;99.90
24458;DHT22;12629;50.860;5.714;2022-12-18T10:28:56;-2.20;99.90
24458;DHT22;12629;50.860;5.714;2022-12-18T10:31:24;-2.20;99.90
24458;DHT22;12629;50.860;5.714;2022-12-18T10:33:53;-2.20;99.90
24458;DHT22;12629;50.860;5.714;2022-12-18T10:36:22;-2.00;99.90
24458;DHT22;12629;50.860;5.714;2022-12-18T10:38:50;-1.90;99.90
24458;DHT22;12629;50.860;5.714;2022-12-18T10:41:27;-2.00;99.90
24458;DHT22;12629;50.860;5.714;2022-12-18T10:44:12;-2.10;99.90
24458;DHT22;12629;50.860;5.714;2022-12-18T10:46:41;-2.10;99.90
24458;DHT22;12629;50.860;5.714;2022-12-18T10:49:19;-2.00;99.90
24458;DHT22;12629;50.860;5.714;2022-12-18T10:51:48;-1.90;99.90
24458;DHT22;12629;50.860;5.714;2022-12-18T10:54:18;-1.90;99.90
24458;DHT22;12629;50.860;5.714;2022-12-18T10:56:48;-1.90;99.90
24458;DHT22;12629;50.860;5.714;2022-12-18T10:59:17;-1.70;99.90
24458;DHT22;12629;50.860;5.714;2022-12-18T11:01:51;-1.80;99.90
24458;DHT22;12629;50.860;5.714;2022-12-18T11:04:20;-1.80;99.90
24458;DHT22;12629;50.860;5.714;2022-12-18T11:06:56;-1.70;99.90
24458;DHT22;12629;50.860;5.714;2022-12-18T11:09:26;-1.70;99.90
24458;DHT22;12629;50.860;5.714;2022-12-18T11:11:56;-1.60;99.90
24458;DHT22;12629;50.860;5.714;2022-12-18T11:14:26;-1.70;99.90
24458;DHT22;12629;50.860;5.714;2022-12-18T11:16:55;-1.80;99.90
24458;DHT22;12629;50.860;5.714;2022-12-18T11:19:31;-1.90;99.90
24458;DHT22;12629;50.860;5.714;2022-12-18T11:21:59;-1.90;99.90
24458;DHT22;12629;50.860;5.714;2022-12-18T11:24:29;-1.80;99.90
24458;DHT22;12629;50.860;5.714;2022-12-18T11:27:01;-1.70;99.90
24458;DHT22;12629;50.860;5.714;2022-12-18T11:29:31;-1.70;99.90
24458;DHT22;12629;50.860;5.714;2022-12-18T11:32:31;-1.60;99.90
24458;DHT22;12629;50.860;5.714;2022-12-18T11:35:11;-1.60;99.90
24458;DHT22;12629;50.860;5.714;2022-12-18T11:37:43;-1.50;99.90
24458;DHT22;12629;50.860;5.714;2022-12-18T11:40:13;-1.40;99.90
24458;DHT22;12629;50.860;5.714;2022-12-18T11:42:47;-1.30;99.90
24458;DHT22;12629;50.860;5.714;2022-12-18T11:45:28;-1.30;99.90
24458;DHT22;12629;50.860;5.714;2022-12-18T11:48:03;-1.30;99.90
24458;DHT22;12629;50.860;5.714;2022-12-18T11:50:39;-1.30;99.90
24458;DHT22;12629;50.860;5.714;2022-12-18T11:53:11;-1.30;99.90
24458;DHT22;12629;50.860;5.714;2022-12-18T11:55:45;-1.30;99.90
24458;DHT22;12629;50.860;5.714;2022-12-18T11:58:23;-1.20;99.90
24458;DHT22;12629;50.860;5.714;2022-12-18T12:00:56;-1.20;99.90
24458;DHT22;12629;50.860;5.714;2022-12-18T12:03:45;-1.20;99.90
24458;DHT22;12629;50.860;5.714;2022-12-18T12:06:21;-1.10;99.90
24458;DHT22;12629;50.860;5.714;2022-12-18T12:09:01;-1.00;99.90
24458;DHT22;12629;50.860;5.714;2022-12-18T12:11:40;-0.80;99.90
24458;DHT22;12629;50.860;5.714;2022-12-18T12:14:26;-0.60;99.90
24458;DHT22;12629;50.860;5.714;2022-12-18T12:17:01;-0.60;99.90
24458;DHT22;12629;50.860;5.714;2022-12-18T12:19:40;-0.60;99.90
24458;DHT22;12629;50.860;5.714;2022-12-18T12:22:13;-0.60;99.90
24458;DHT22;12629;50.860;5.714;2022-12-18T12:24:54;-0.50;99.90
24458;DHT22;12629;50.860;5.714;2022-12-18T12:27:33;-0.40;99.90
24458;DHT22;12629;50.860;5.714;2022-12-18T12:30:06;-0.40;99.90
24458;DHT22;12629;50.860;5.714;2022-12-18T12:32:46;-0.40;99.90
24458;DHT22;12629;50.860;5.714;2022-12-18T12:35:36;-0.30;99.90
24458;DHT22;12629;50.860;5.714;2022-12-18T12:38:10;-0.20;99.90
24458;DHT22;12629;50.860;5.714;2022-12-18T12:40:43;-0.20;99.90
24458;DHT22;12629;50.860;5.714;2022-12-18T12:43:22;-0.10;99.90
24458;DHT22;12629;50.860;5.714;2022-12-18T12:45:54;-0.10;99.90
24458;DHT22;12629;50.860;5.714;2022-12-18T12:48:32;0.00;99.90
24458;DHT22;12629;50.860;5.714;2022-12-18T12:51:02;-0.10;99.90
24458;DHT22;12629;50.860;5.714;2022-12-18T12:53:34;0.00;99.90
24458;DHT22;12629;50.860;5.714;2022-12-18T12:56:03;0.00;99.90
24458;DHT22;12629;50.860;5.714;2022-12-18T12:58:36;0.10;99.90
24458;DHT22;12629;50.860;5.714;2022-12-18T13:01:17;0.20;99.90
24458;DHT22;12629;50.860;5.714;2022-12-18T13:03:52;0.30;99.90
24458;DHT22;12629;50.860;5.714;2022-12-18T13:06:32;0.30;99.90
24458;DHT22;12629;50.860;5.714;2022-12-18T13:09:00;0.40;99.90
24458;DHT22;12629;50.860;5.714;2022-12-18T13:11:37;0.50;99.90
24458;DHT22;12629;50.860;5.714;2022-12-18T13:14:25;0.50;99.90
24458;DHT22;12629;50.860;5.714;2022-12-18T13:20:11;0.50;99.90
24458;DHT22;12629;50.860;5.714;2022-12-18T13:22:42;0.50;99.90
24458;DHT22;12629;50.860;5.714;2022-12-18T13:25:35;0.60;99.90
24458;DHT22;12629;50.860;5.714;2022-12-18T13:28:06;0.60;99.90
24458;DHT22;12629;50.860;5.714;2022-12-18T13:30:51;0.70;99.90
24458;DHT22;12629;50.860;5.714;2022-12-18T13:33:41;0.70;99.90
24458;DHT22;12629;50.860;5.714;2022-12-18T13:39:30;0.90;99.90
24458;DHT22;12629;50.860;5.714;2022-12-18T13:45:45;1.00;99.90
24458;DHT22;12629;50.860;5.714;2022-12-18T13:48:22;0.90;99.90
24458;DHT22;12629;50.860;5.714;2022-12-18T13:50:55;0.90;99.90
24458;DHT22;12629;50.860;5.714;2022-12-18T13:53:26;0.90;99.90
24458;DHT22;12629;50.860;5.714;2022-12-18T13:55:54;0.80;99.90
24458;DHT22;12629;50.860;5.714;2022-12-18T13:58:22;0.70;99.90
24458;DHT22;12629;50.860;5.714;2022-12-18T14:00:49;0.60;99.90
24458;DHT22;12629;50.860;5.714;2022-12-18T14:03:20;0.60;99.90
24458;DHT22;12629;50.860;5.714;2022-12-18T14:06:01;0.50;99.90
24458;DHT22;12629;50.860;5.714;2022-12-18T14:08:37;0.30;99.90
24458;DHT22;12629;50.860;5.714;2022-12-18T14:11:06;0.20;99.90
24458;DHT22;12629;50.860;5.714;2022-12-18T14:13:36;0.10;99.90
24458;DHT22;12629;50.860;5.714;2022-12-18T14:16:06;0.00;99.90
24458;DHT22;12629;50.860;5.714;2022-12-18T14:18:42;0.00;99.90
24458;DHT22;12629;50.860;5.714;2022-12-18T14:21:20;-0.10;99.90
24458;DHT22;12629;50.860;5.714;2022-12-18T14:23:48;-0.20;99.90
24458;DHT22;12629;50.860;5.714;2022-12-18T14:26:26;-0.20;99.90
24458;DHT22;12629;50.860;5.714;2022-12-18T14:28:55;-0.20;99.90
24458;DHT22;12629;50.860;5.714;2022-12-18T14:31:24;-0.20;99.90
24458;DHT22;12629;50.860;5.714;2022-12-18T14:33:52;-0.20;99.90
24458;DHT22;12629;50.860;5.714;2022-12-18T14:36:23;-0.20;99.90
24458;DHT22;12629;50.860;5.714;2022-12-18T14:38:51;-0.20;99.90
24458;DHT22;12629;50.860;5.714;2022-12-18T14:41:20;-0.20;99.90
24458;DHT22;12629;50.860;5.714;2022-12-18T14:43:49;-0.20;99.90
24458;DHT22;12629;50.860;5.714;2022-12-18T14:46:32;-0.20;99.90
24458;DHT22;12629;50.860;5.714;2022-12-18T14:49:02;-0.20;99.90
24458;DHT22;12629;50.860;5.714;2022-12-18T14:51:33;-0.20;99.90
24458;DHT22;12629;50.860;5.714;2022-12-18T14:54:02;-0.20;99.90
24458;DHT22;12629;50.860;5.714;2022-12-18T14:56:31;-0.20;99.90
24458;DHT22;12629;50.860;5.714;2022-12-18T14:59:02;-0.20;99.90
24458;DHT22;12629;50.860;5.714;2022-12-18T15:01:33;-0.20;99.90
24458;DHT22;12629;50.860;5.714;2022-12-18T15:04:03;-0.30;99.90
24458;DHT22;12629;50.860;5.714;2022-12-18T15:06:34;-0.30;99.90
24458;DHT22;12629;50.860;5.714;2022-12-18T15:09:05;-0.30;99.90
24458;DHT22;12629;50.860;5.714;2022-12-18T15:11:47;-0.30;99.90
